Time;durP1;ratioP1;P1;durP2;ratioP2;P2;SDS_P1;SDS_P2;PMS_P1;PMS_P2;Temp;Humidity;BMP_temperature;BMP_pressure;BME280_temperature;BME280_humidity;BME280_pressure;Samples;Min_cycle;Max_cycle;Signal;HPM_P1;HPM_P2
2023/05/09 00:00:22;;;;;;;179.77;58.83;;;;;;;;;;6243131;23;20370;-76
2023/05/09 00:02:48;;;;;;;175.70;57.60;;;;;;;;;;6242504;23;20365;-76
2023/05/09 00:05:14;;;;;;;169.65;57.13;;;;;;;;;;6218119;23;20405;-76
2023/05/09 00:07:40;;;;;;;152.70;52.23;;;;;;;;;;6243787;23;20937;-75
2023/05/09 00:10:06;;;;;;;168.98;55.92;;;;;;;;;;6243971;23;20445;-76
2023/05/09 00:12:32;;;;;;;149.77;53.92;;;;;;;;;;6215433;23;20362;-76
2023/05/09 00:14:58;;;;;;;155.50;55.17;;;;;;;;;;6243094;23;20835;-76
2023/05/09 00:17:25;;;;;;;170.68;55.60;;;;;;;;;;6242656;23;20401;-76
2023/05/09 00:19:52;;;;;;;165.38;55.85;;;;;;;;;;6243514;23;20376;-76
2023/05/09 00:22:22;;;;;;;158.95;54.03;;;;;;;;;;6243071;23;20373;-76
2023/05/09 00:24:48;;;;;;;168.32;55.28;;;;;;;;;;6215840;23;20382;-77
2023/05/09 00:27:15;;;;;;;156.25;53.05;;;;;;;;;;6243728;23;20461;-76
2023/05/09 00:29:41;;;;;;;161.40;54.15;;;;;;;;;;6241862;23;20373;-76
2023/05/09 00:32:07;;;;;;;153.02;51.47;;;;;;;;;;6218393;23;20365;-75
2023/05/09 00:34:33;;;;;;;134.80;49.27;;;;;;;;;;6242761;23;20384;-77
2023/05/09 00:36:59;;;;;;;135.63;49.22;;;;;;;;;;6217406;23;20373;-77
2023/05/09 00:39:25;;;;;;;134.48;49.22;;;;;;;;;;6216884;23;20851;-76
2023/05/09 00:41:52;;;;;;;136.33;48.90;;;;;;;;;;6242584;23;20393;-77
2023/05/09 00:44:18;;;;;;;127.05;46.42;;;;;;;;;;6243812;23;20442;-77
2023/05/09 00:46:44;;;;;;;135.77;49.90;;;;;;;;;;6242279;23;20369;-74
2023/05/09 00:49:11;;;;;;;132.53;49.67;;;;;;;;;;6241405;23;20456;-74
2023/05/09 00:51:40;;;;;;;138.07;49.50;;;;;;;;;;6239883;23;21315;-74
2023/05/09 00:54:07;;;;;;;141.52;50.05;;;;;;;;;;6241796;23;20450;-74
2023/05/09 00:56:33;;;;;;;139.52;49.42;;;;;;;;;;6241247;23;20366;-74
2023/05/09 00:58:59;;;;;;;148.90;50.88;;;;;;;;;;6242551;23;20413;-73
2023/05/09 01:01:26;;;;;;;141.73;51.77;;;;;;;;;;6216690;23;20362;-74
2023/05/09 01:03:52;;;;;;;141.88;49.50;;;;;;;;;;6216502;23;20405;-75
2023/05/09 01:07:19;;;;;;;149.80;50.97;;;12.70;99.90;;;;;;6215970;23;20390;-74
2023/05/09 01:10:05;;;;;;;147.68;51.30;;;;;;;;;;6104829;23;20412;-73
2023/05/09 01:12:45;;;;;;;154.13;52.80;;;15.10;99.90;;;;;;6155964;23;20393;-74
2023/05/09 01:15:45;;;;;;;141.48;50.17;;;13.90;99.90;;;;;;6227913;23;20374;-75
2023/05/09 01:18:17;;;;;;;152.07;53.13;;;;;;;;;;6242021;23;20419;-73
2023/05/09 01:20:50;;;;;;;159.25;53.13;;;14.10;99.90;;;;;;6215188;23;20373;-75
2023/05/09 01:23:16;;;;;;;143.57;51.53;;;;;;;;;;6217266;23;20377;-74
2023/05/09 01:26:07;;;;;;;156.77;54.13;;;12.60;99.90;;;;;;6239369;23;20450;-73
2023/05/09 01:28:36;;;;;;;167.43;54.20;;;;;;;;;;6242146;23;20460;-73
2023/05/09 01:31:03;;;;;;;169.70;55.00;;;;;;;;;;6242083;23;20366;-73
2023/05/09 01:33:32;;;;;;;174.02;55.03;;;;;;;;;;6215758;23;20393;-75
2023/05/09 01:36:01;;;;;;;147.27;50.22;;;;;;;;;;6239930;23;20365;-75
2023/05/09 01:38:29;;;;;;;155.32;53.25;;;;;;;;;;6217414;23;20366;-74
2023/05/09 01:40:57;;;;;;;143.98;50.00;;;13.40;99.90;;;;;;6241545;23;20377;-74
2023/05/09 01:43:25;;;;;;;148.13;50.00;;;;;;;;;;6242810;23;20424;-75
2023/05/09 01:45:52;;;;;;;165.65;53.80;;;;;;;;;;6241070;23;20386;-74
2023/05/09 01:48:19;;;;;;;167.50;55.33;;;;;;;;;;6216812;23;20866;-74
2023/05/09 01:50:46;;;;;;;161.25;54.05;;;14.00;99.90;;;;;;6240830;23;20369;-74
2023/05/09 01:53:12;;;;;;;150.18;53.63;;;;;;;;;;6241817;23;20463;-74
2023/05/09 01:55:40;;;;;;;161.10;53.40;;;;;;;;;;6240927;23;20855;-73
2023/05/09 01:58:06;;;;;;;163.40;54.30;;;;;;;;;;6241264;23;20420;-73
2023/05/09 02:00:36;;;;;;;159.98;53.63;;;;;;;;;;6241435;23;20362;-73
2023/05/09 02:03:03;;;;;;;156.75;52.40;;;14.30;99.90;;;;;;6242241;23;20475;-73
2023/05/09 02:05:30;;;;;;;149.45;53.92;;;;;;;;;;6241371;23;20428;-73
2023/05/09 02:08:00;;;;;;;159.10;54.65;;;;;;;;;;6216000;23;20374;-74
2023/05/09 02:10:30;;;;;;;139.95;51.30;;;;;;;;;;6241188;23;20369;-74
2023/05/09 02:12:56;;;;;;;143.63;51.97;;;;;;;;;;6242080;23;20366;-74
2023/05/09 02:15:22;;;;;;;157.02;53.25;;;;;;;;;;6240025;23;20362;-74
2023/05/09 02:17:48;;;;;;;155.60;52.92;;;;;;;;;;6216421;23;20365;-75
2023/05/09 02:20:14;;;;;;;160.98;54.40;;;;;;;;;;6239798;23;20754;-73
2023/05/09 02:22:42;;;;;;;148.95;52.17;;;13.90;99.90;;;;;;6240999;23;20397;-74
2023/05/09 02:25:09;;;;;;;166.10;55.22;;;;;;;;;;6241568;23;20406;-73
2023/05/09 02:27:37;;;;;;;168.00;56.03;;;;;;;;;;6241963;23;20378;-73
2023/05/09 02:30:06;;;;;;;172.45;57.28;;;;;;;;;;6241840;23;20919;-73
2023/05/09 02:32:34;;;;;;;178.75;55.80;;;13.50;99.90;;;;;;6215803;23;20366;-73
2023/05/09 02:35:01;;;;;;;163.27;55.03;;;12.60;99.90;;;;;;6189749;23;20688;-73
2023/05/09 02:37:27;;;;;;;171.73;55.83;;;;;;;;;;6238797;23;20373;-74
2023/05/09 02:39:53;;;;;;;168.35;57.33;;;;;;;;;;6214552;23;20794;-74
2023/05/09 02:42:25;;;;;;;168.77;56.72;;;15.50;99.90;;;;;;6241997;23;20831;-74
2023/05/09 02:44:51;;;;;;;170.05;55.85;;;12.80;99.90;;;;;;6242230;23;20382;-74
2023/05/09 02:47:17;;;;;;;177.57;57.45;;;;;;;;;;6241715;23;20374;-74
2023/05/09 02:49:44;;;;;;;173.80;55.38;;;;;;;;;;6215519;23;20361;-74
2023/05/09 02:52:10;;;;;;;176.52;57.90;;;;;;;;;;6215814;23;20362;-74
2023/05/09 02:54:37;;;;;;;181.38;58.05;;;;;;;;;;6237963;23;20370;-74
2023/05/09 02:57:03;;;;;;;175.67;56.07;;;;;;;;;;6241500;23;20365;-74
2023/05/09 02:59:29;;;;;;;161.10;54.65;;;;;;;;;;6242681;23;20361;-74
2023/05/09 03:01:55;;;;;;;179.13;56.92;;;;;;;;;;6241089;23;20403;-75
2023/05/09 03:04:22;;;;;;;183.55;57.97;;;;;;;;;;6214768;23;20385;-75
2023/05/09 03:06:47;;;;;;;197.27;57.97;;;14.20;99.90;;;;;;6241240;23;20421;-73
2023/05/09 03:09:14;;;;;;;168.48;54.70;;;;;;;;;;6215226;23;20889;-73
2023/05/09 03:11:40;;;;;;;195.95;58.03;;;;;;;;;;6240598;23;20366;-73
2023/05/09 03:14:07;;;;;;;188.10;57.33;;;;;;;;;;6217060;23;20376;-74
2023/05/09 03:16:33;;;;;;;178.13;57.70;;;;;;;;;;6241164;23;20662;-73
2023/05/09 03:19:00;;;;;;;181.18;58.38;;;;;;;;;;6242142;23;20366;-74
2023/05/09 03:21:26;;;;;;;178.02;59.13;;;;;;;;;;6244281;22;20362;-74
2023/05/09 03:23:51;;;;;;;161.57;54.28;;;15.40;99.90;;;;;;6218768;23;20366;-73
2023/05/09 03:26:17;;;;;;;170.55;56.40;;;;;;;;;;6242857;23;20392;-75
2023/05/09 03:28:43;;;;;;;163.45;54.60;;;;;;;;;;6242736;23;20362;-75
2023/05/09 03:31:09;;;;;;;165.15;54.05;;;;;;;;;;6243225;23;20697;-74
2023/05/09 03:33:35;;;;;;;163.25;53.38;;;13.20;99.90;;;;;;6218452;23;20731;-74
2023/05/09 03:36:01;;;;;;;162.73;54.03;;;;;;;;;;6243957;22;20511;-74
2023/05/09 03:38:27;;;;;;;167.38;55.20;;;;;;;;;;6243517;23;20428;-74
2023/05/09 03:40:53;;;;;;;173.82;55.95;;;;;;;;;;6243170;23;20469;-75
2023/05/09 03:43:19;;;;;;;177.93;56.90;;;;;;;;;;6217687;23;20366;-74
2023/05/09 03:45:45;;;;;;;181.77;55.45;;;;;;;;;;6242820;23;20848;-74
2023/05/09 03:48:11;;;;;;;177.73;56.35;;;;;;;;;;6242884;23;20767;-73
2023/05/09 03:50:37;;;;;;;165.02;53.97;;;;;;;;;;6242869;23;20855;-74
2023/05/09 03:53:04;;;;;;;190.63;56.83;;;;;;;;;;6243794;23;20362;-75
2023/05/09 03:55:30;;;;;;;185.68;57.35;;;;;;;;;;6217018;23;20395;-74
2023/05/09 03:57:56;;;;;;;175.63;55.78;;;;;;;;;;6241731;23;20445;-74
2023/05/09 04:00:22;;;;;;;195.98;56.53;;;;;;;;;;6241076;23;20377;-73
2023/05/09 04:02:49;;;;;;;196.97;57.03;;;;;;;;;;6243784;23;20394;-74
2023/05/09 04:05:15;;;;;;;205.65;59.80;;;;;;;;;;6242351;23;20759;-74
2023/05/09 04:07:42;;;;;;;206.15;59.40;;;;;;;;;;6242733;23;20435;-74
2023/05/09 04:10:08;;;;;;;207.63;60.13;;;;;;;;;;6243557;23;20362;-74
2023/05/09 04:12:34;;;;;;;197.13;58.50;;;;;;;;;;6216369;23;20369;-74
2023/05/09 04:15:00;;;;;;;197.35;60.97;;;;;;;;;;6216925;23;20687;-73
2023/05/09 04:17:26;;;;;;;237.63;65.38;;;;;;;;;;6241047;23;20369;-74
2023/05/09 04:19:52;;;;;;;229.20;63.78;;;;;;;;;;6242526;23;20369;-74
2023/05/09 04:22:18;;;;;;;227.80;63.05;;;;;;;;;;6242969;23;20366;-74
2023/05/09 04:24:45;;;;;;;237.38;64.45;;;;;;;;;;6241952;23;20377;-74
2023/05/09 04:27:11;;;;;;;230.43;62.80;;;;;;;;;;6242220;23;20756;-74
2023/05/09 04:29:37;;;;;;;239.65;67.00;;;;;;;;;;6242562;23;20378;-74
2023/05/09 04:32:04;;;;;;;230.17;65.47;;;;;;;;;;6241635;23;20366;-76
2023/05/09 04:34:30;;;;;;;226.85;65.80;;;14.60;99.90;;;;;;6242746;23;20680;-77
2023/05/09 04:36:56;;;;;;;228.87;63.77;;;;;;;;;;6242619;23;20374;-77
2023/05/09 04:39:22;;;;;;;237.73;66.22;;;;;;;;;;6242370;23;20370;-78
2023/05/09 04:41:49;;;;;;;245.05;66.45;;;;;;;;;;6242967;23;20423;-77
2023/05/09 04:44:15;;;;;;;234.00;65.50;;;;;;;;;;6241449;23;20859;-76
2023/05/09 04:46:42;;;;;;;238.73;66.67;;;;;;;;;;6241456;23;20696;-77
2023/05/09 04:49:08;;;;;;;213.73;66.28;;;;;;;;;;6243960;23;20362;-76
2023/05/09 04:51:34;;;;;;;250.23;69.63;;;;;;;;;;6242686;23;20362;-76
2023/05/09 04:54:00;;;;;;;237.07;69.93;;;;;;;;;;6243678;23;20358;-76
2023/05/09 04:56:26;;;;;;;227.50;68.10;;;;;;;;;;6244346;23;20377;-76
2023/05/09 04:58:52;;;;;;;253.45;72.57;;;;;;;;;;6216698;23;20742;-77
2023/05/09 05:01:19;;;;;;;268.90;74.30;;;;;;;;;;6218883;23;20672;-77
2023/05/09 05:03:45;;;;;;;308.58;80.00;;;;;;;;;;6217063;23;20445;-76
2023/05/09 05:06:11;;;;;;;303.83;80.75;;;;;;;;;;6243920;23;20390;-75
2023/05/09 05:08:37;;;;;;;327.48;82.63;;;;;;;;;;6243883;23;20377;-76
2023/05/09 05:11:03;;;;;;;308.53;78.97;;;;;;;;;;6243772;23;20366;-76
2023/05/09 05:13:29;;;;;;;312.90;80.72;;;;;;;;;;6218363;23;20437;-77
2023/05/09 05:15:57;;;;;;;281.95;79.47;;;;;;;;;;6243135;23;20456;-78
2023/05/09 05:18:23;;;;;;;280.43;78.47;;;;;;;;;;6243136;23;20370;-77
2023/05/09 05:20:49;;;;;;;317.48;82.80;;;;;;;;;;6193211;23;20366;-77
2023/05/09 05:23:15;;;;;;;299.38;79.45;;;13.80;99.90;;;;;;6244447;23;20397;-76
2023/05/09 05:25:41;;;;;;;292.40;80.28;;;;;;;;;;6243965;23;20408;-76
2023/05/09 05:28:07;;;;;;;326.80;81.57;;;;;;;;;;6216712;23;20394;-77
2023/05/09 05:30:33;;;;;;;351.10;89.20;;;;;;;;;;6216067;23;20362;-76
2023/05/09 05:32:59;;;;;;;332.83;87.10;;;;;;;;;;6216943;23;20366;-77
2023/05/09 05:35:27;;;;;;;330.90;87.67;;;;;;;;;;6242999;23;20385;-77
2023/05/09 05:37:53;;;;;;;316.05;84.68;;;;;;;;;;6191642;23;20438;-78
2023/05/09 05:40:20;;;;;;;319.40;87.03;;;;;;;;;;6242109;23;20373;-77
2023/05/09 05:42:46;;;;;;;310.13;85.87;;;;;;;;;;6191189;23;20445;-77
2023/05/09 05:45:12;;;;;;;300.27;85.05;;;;;;;;;;6241933;23;20389;-77
2023/05/09 05:47:38;;;;;;;265.08;81.35;;;;;;;;;;6242044;23;20370;-77
2023/05/09 05:50:05;;;;;;;270.30;82.22;;;;;;;;;;6240574;23;20366;-77
2023/05/09 05:52:31;;;;;;;268.80;81.60;;;;;;;;;;6239948;23;20419;-76
2023/05/09 05:54:57;;;;;;;257.88;80.13;;;;;;;;;;6240376;23;20373;-77
2023/05/09 05:57:24;;;;;;;246.23;80.70;;;;;;;;;;6215044;23;20423;-77
2023/05/09 05:59:50;;;;;;;248.88;79.80;;;15.40;99.90;;;;;;6241994;23;20416;-77
2023/05/09 06:02:17;;;;;;;249.45;80.55;;;;;;;;;;6240294;23;20369;-78
2023/05/09 06:04:43;;;;;;;242.57;80.20;;;;;;;;;;6240374;23;20397;-78
2023/05/09 06:07:10;;;;;;;241.25;79.28;;;;;;;;;;6240707;23;20384;-77
2023/05/09 06:09:36;;;;;;;383.83;99.70;;;;;;;;;;6190964;23;20837;-77
2023/05/09 06:12:02;;;;;;;240.40;83.07;;;;;;;;;;6241795;23;20373;-77
2023/05/09 06:14:28;;;;;;;231.82;78.45;;;;;;;;;;6240205;23;20835;-77
2023/05/09 06:16:55;;;;;;;229.80;79.78;;;;;;;;;;6212495;23;20362;-72
2023/05/09 06:19:21;;;;;;;244.57;80.10;;;;;;;;;;6239460;23;20365;-75
2023/05/09 06:21:47;;;;;;;235.90;80.77;;;;;;;;;;6239299;23;20988;-74
2023/05/09 06:24:13;;;;;;;239.50;80.22;;;;;;;;;;6215228;23;20362;-74
2023/05/09 06:26:39;;;;;;;239.90;81.55;;;;;;;;;;6240829;23;20730;-74
2023/05/09 06:29:06;;;;;;;236.18;79.43;;;;;;;;;;6241761;23;20366;-74
2023/05/09 06:31:37;;;;;;;229.00;79.28;;;14.90;99.90;;;;;;6241518;23;20368;-75
2023/05/09 06:34:03;;;;;;;228.25;78.20;;;;;;;;;;6216339;23;20380;-74
2023/05/09 06:36:29;;;;;;;224.15;80.15;;;;;;;;;;6215371;23;20748;-74
2023/05/09 06:38:55;;;;;;;233.48;80.40;;;;;;;;;;6216704;23;20369;-74
2023/05/09 06:41:22;;;;;;;226.98;79.10;;;;;;;;;;6216794;23;20365;-74
2023/05/09 06:43:48;;;;;;;222.13;76.57;;;;;;;;;;6241596;23;20453;-73
2023/05/09 06:46:14;;;;;;;214.03;76.20;;;;;;;;;;6243005;23;20381;-75
2023/05/09 06:48:40;;;;;;;210.48;75.10;;;;;;;;;;6216407;23;20361;-75
2023/05/09 06:51:06;;;;;;;202.13;73.93;;;;;;;;;;6239257;23;20794;-75
2023/05/09 06:53:32;;;;;;;198.65;71.45;;;;;;;;;;6243340;23;20365;-74
2023/05/09 06:55:58;;;;;;;213.18;74.45;;;;;;;;;;6243605;23;20373;-74
2023/05/09 06:58:24;;;;;;;200.27;72.80;;;;;;;;;;6244303;23;20641;-75
2023/05/09 07:00:50;;;;;;;200.00;71.97;;;;;;;;;;6216465;23;20373;-75
2023/05/09 07:03:19;;;;;;;183.60;70.35;;;14.70;99.90;;;;;;6241053;23;20366;-74
2023/05/09 07:05:44;;;;;;;190.85;71.13;;;14.70;99.90;;;;;;6240185;23;20401;-74
2023/05/09 07:08:11;;;;;;;176.17;68.13;;;;;;;;;;6218042;23;20720;-74
2023/05/09 07:10:37;;;;;;;179.00;68.95;;;;;;;;;;6218900;23;20749;-75
2023/05/09 07:13:03;;;;;;;182.73;68.80;;;;;;;;;;6216997;23;20819;-75
2023/05/09 07:15:30;;;;;;;161.07;64.65;;;;;;;;;;6243131;23;20378;-75
2023/05/09 07:17:56;;;;;;;156.38;65.25;;;;;;;;;;6243684;23;20372;-75
2023/05/09 07:20:22;;;;;;;145.90;61.38;;;;;;;;;;6216349;23;20759;-75
2023/05/09 07:22:48;;;;;;;115.38;53.70;;;;;;;;;;6217036;23;20386;-75
2023/05/09 07:25:14;;;;;;;107.30;53.53;;;;;;;;;;6215625;23;20728;-75
2023/05/09 07:27:40;;;;;;;102.63;50.97;;;15.40;99.90;;;;;;6190660;23;20424;-75
2023/05/09 07:30:07;;;;;;;103.25;51.10;;;;;;;;;;6240976;22;20365;-75
2023/05/09 07:32:34;;;;;;;98.10;50.20;;;;;;;;;;6241927;23;20365;-76
2023/05/09 07:35:00;;;;;;;106.22;50.42;;;;;;;;;;6240901;23;20449;-76
2023/05/09 07:37:26;;;;;;;97.93;48.78;;;;;;;;;;6242080;23;20366;-76
2023/05/09 07:39:52;;;;;;;96.55;48.35;;;;;;;;;;6213144;23;20368;-76
2023/05/09 07:42:18;;;;;;;94.70;49.03;;;;;;;;;;6213412;23;20376;-76
2023/05/09 07:44:44;;;;;;;94.25;49.85;;;;;;;;;;6215545;23;20390;-76
2023/05/09 07:47:10;;;;;;;98.72;49.17;;;;;;;;;;6215689;23;20366;-76
2023/05/09 07:49:36;;;;;;;97.28;50.40;;;15.40;99.90;;;;;;6217972;23;20369;-76
2023/05/09 07:52:02;;;;;;;83.90;47.22;;;;;;;;;;6217802;23;20362;-76
2023/05/09 07:54:28;;;;;;;88.63;46.80;;;;;;;;;;6217901;23;20373;-76
2023/05/09 07:56:54;;;;;;;89.75;47.03;;;;;;;;;;6242584;23;20362;-75
2023/05/09 07:59:20;;;;;;;79.13;45.00;;;;;;;;;;6192704;23;20368;-76
2023/05/09 08:01:47;;;;;;;83.28;45.08;;;;;;;;;;6215533;23;20441;-75
2023/05/09 08:04:13;;;;;;;76.50;42.55;;;;;;;;;;6214292;23;20366;-76
2023/05/09 08:06:39;;;;;;;75.63;43.22;;;;;;;;;;6241980;23;20420;-76
2023/05/09 08:09:05;;;;;;;80.55;44.25;;;15.90;99.90;;;;;;6243430;23;20368;-76
2023/05/09 08:11:34;;;;;;;82.05;43.40;;;;;;;;;;6243926;23;20362;-76
2023/05/09 08:14:01;;;;;;;82.70;44.80;;;;;;;;;;6188654;23;20366;-76
2023/05/09 08:16:27;;;;;;;78.43;44.40;;;;;;;;;;6240966;23;20374;-76
2023/05/09 08:18:53;;;;;;;73.47;42.85;;;;;;;;;;6241028;23;20370;-75
2023/05/09 08:21:20;;;;;;;75.63;42.72;;;;;;;;;;6214599;23;20369;-75
2023/05/09 08:23:46;;;;;;;78.95;43.92;;;;;;;;;;6238983;23;20373;-74
2023/05/09 08:26:12;;;;;;;73.53;42.10;;;;;;;;;;6216886;23;20393;-75
2023/05/09 08:28:38;;;;;;;73.05;41.22;;;;;;;;;;6216966;23;20366;-75
2023/05/09 08:31:04;;;;;;;74.18;41.08;;;;;;;;;;6242391;23;20362;-76
2023/05/09 08:33:30;;;;;;;66.50;40.42;;;;;;;;;;6217308;23;20527;-75
2023/05/09 08:35:56;;;;;;;73.60;41.80;;;;;;;;;;6238775;23;20741;-75
2023/05/09 08:38:23;;;;;;;67.75;40.65;;;;;;;;;;6211255;23;20372;-76
2023/05/09 08:40:49;;;;;;;69.95;40.33;;;;;;;;;;6241269;23;20366;-76
2023/05/09 08:43:19;;;;;;;68.17;39.83;;;;;;;;;;6216333;23;20377;-77
2023/05/09 08:45:56;;;;;;;72.15;41.20;;;16.00;99.90;;;;;;6242033;23;20414;-76
2023/05/09 08:48:22;;;;;;;65.57;40.55;;;;;;;;;;6241507;23;20445;-76
2023/05/09 08:50:48;;;;;;;65.68;38.55;;;;;;;;;;6241396;23;20369;-76
2023/05/09 08:53:15;;;;;;;66.88;38.20;;;;;;;;;;6217211;23;20824;-73
2023/05/09 08:55:41;;;;;;;63.73;39.67;;;;;;;;;;6239604;23;20475;-75
2023/05/09 08:58:08;;;;;;;68.07;39.53;;;16.10;99.90;;;;;;6215173;23;20807;-74
2023/05/09 09:00:36;;;;;;;59.78;36.72;;;16.30;99.90;;;;;;6192332;23;20449;-75
2023/05/09 09:03:05;;;;;;;60.40;36.63;;;16.20;99.90;;;;;;6242563;23;20400;-75
2023/05/09 09:05:35;;;;;;;59.20;35.63;;;16.60;99.90;;;;;;6241369;23;20390;-76
2023/05/09 09:08:02;;;;;;;56.03;35.92;;;;;;;;;;6242804;23;20846;-75
2023/05/09 09:10:30;;;;;;;62.75;35.97;;;16.20;99.90;;;;;;6214591;23;20910;-76
2023/05/09 09:12:58;;;;;;;62.20;37.42;;;16.70;99.90;;;;;;6215942;23;20432;-76
2023/05/09 09:15:25;;;;;;;55.38;34.42;;;;;;;;;;6240647;23;20462;-75
2023/05/09 09:17:55;;;;;;;51.35;31.77;;;;;;;;;;6241018;23;20393;-76
2023/05/09 09:20:22;;;;;;;50.47;30.90;;;;;;;;;;6216858;23;20405;-75
2023/05/09 09:22:48;;;;;;;51.10;31.95;;;;;;;;;;6239969;23;20404;-75
2023/05/09 09:25:14;;;;;;;52.35;31.80;;;;;;;;;;6238966;23;20388;-76
2023/05/09 09:27:40;;;;;;;51.50;33.13;;;;;;;;;;6215110;23;20773;-76
2023/05/09 09:30:10;;;;;;;47.58;31.15;;;;;;;;;;6240602;23;20373;-76
2023/05/09 09:32:38;;;;;;;46.80;29.45;;;17.10;99.90;;;;;;6216303;23;20404;-76
2023/05/09 09:35:09;;;;;;;44.67;28.38;;;17.10;99.90;;;;;;6240447;23;20373;-77
2023/05/09 09:37:36;;;;;;;46.15;31.02;;;;;;;;;;6239807;23;20953;-77
2023/05/09 09:40:03;;;;;;;38.70;26.53;;;16.80;99.90;;;;;;6215185;23;20906;-77
2023/05/09 09:42:50;;;;;;;39.45;26.98;;;16.90;99.90;;;;;;6216613;23;20394;-77
2023/05/09 09:45:17;;;;;;;42.65;26.40;;;;;;;;;;6241479;23;20392;-77
2023/05/09 09:47:44;;;;;;;41.00;27.67;;;17.20;99.90;;;;;;6240599;23;20905;-77
2023/05/09 09:50:18;;;;;;;40.00;25.83;;;17.20;99.90;;;;;;6217095;23;20816;-77
2023/05/09 09:52:44;;;;;;;35.97;25.40;;;;;;;;;;6240425;23;20688;-76
2023/05/09 09:55:12;;;;;;;38.03;25.30;;;17.40;99.90;;;;;;6217207;23;20856;-76
2023/05/09 09:57:40;;;;;;;35.72;23.75;;;;;;;;;;6215553;23;20369;-75
2023/05/09 10:00:07;;;;;;;34.20;23.80;;;17.40;99.90;;;;;;6241775;23;20447;-75
2023/05/09 10:02:33;;;;;;;32.85;21.90;;;;;;;;;;6216997;23;20381;-75
2023/05/09 10:05:06;;;;;;;33.70;21.77;;;17.70;99.90;;;;;;6216109;23;20392;-76
2023/05/09 10:07:37;;;;;;;32.03;21.90;;;17.60;99.90;;;;;;6214952;23;20452;-74
2023/05/09 10:10:05;;;;;;;31.05;20.90;;;;;;;;;;6217290;23;20747;-76
2023/05/09 10:12:43;;;;;;;31.67;20.05;;;;;;;;;;6243515;23;20362;-76
2023/05/09 10:15:12;;;;;;;29.70;19.73;;;;;;;;;;6244837;23;20680;-76
2023/05/09 10:17:38;;;;;;;28.60;20.10;;;;;;;;;;6241135;23;20370;-77
2023/05/09 10:20:05;;;;;;;25.55;19.27;;;17.50;99.90;;;;;;6244174;23;20393;-75
2023/05/09 10:22:35;;;;;;;25.60;19.40;;;;;;;;;;6243874;23;20373;-76
2023/05/09 10:25:05;;;;;;;28.10;19.58;;;17.90;99.90;;;;;;6253332;23;20698;-77
2023/05/09 10:27:35;;;;;;;27.42;18.48;;;18.10;99.90;;;;;;6245688;22;20433;-76
2023/05/09 10:30:07;;;;;;;26.10;17.67;;;17.90;99.90;;;;;;6251412;23;20718;-75
2023/05/09 10:32:36;;;;;;;25.73;18.13;;;;;;;;;;6244750;23;20684;-77
2023/05/09 10:35:05;;;;;;;27.00;18.10;;;18.10;99.90;;;;;;6244815;23;20461;-77
2023/05/09 10:37:32;;;;;;;23.63;17.77;;;18.10;99.90;;;;;;6221056;23;20373;-75
2023/05/09 10:40:01;;;;;;;26.75;19.00;;;18.30;99.90;;;;;;6221359;23;20366;-76
2023/05/09 10:42:28;;;;;;;21.40;16.58;;;;;;;;;;6218875;23;20492;-75
2023/05/09 10:44:54;;;;;;;23.00;16.37;;;;;;;;;;6250771;23;20382;-75
2023/05/09 10:47:21;;;;;;;23.40;17.40;;;;;;;;;;6251101;23;20412;-75
2023/05/09 10:49:48;;;;;;;22.95;16.65;;;;;;;;;;6248801;23;20477;-76
2023/05/09 10:52:15;;;;;;;23.25;15.95;;;;;;;;;;6223774;23;20369;-76
2023/05/09 10:54:41;;;;;;;22.30;16.55;;;;;;;;;;6226516;23;20366;-75
2023/05/09 10:57:10;;;;;;;22.08;15.63;;;;;;;;;;6222524;23;20449;-76
2023/05/09 10:59:40;;;;;;;20.58;14.93;;;;;;;;;;6250568;23;20523;-76
2023/05/09 11:02:14;;;;;;;20.95;15.57;;;;;;;;;;6251166;23;20366;-76
2023/05/09 11:04:40;;;;;;;21.15;14.88;;;17.60;99.90;;;;;;6222041;23;20362;-77
2023/05/09 11:07:26;;;;;;;20.63;14.50;;;18.00;99.90;;;;;;6247631;23;20385;-76
2023/05/09 11:10:16;;;;;;;21.60;14.60;;;18.10;99.90;;;;;;6248868;23;20376;-76
2023/05/09 11:12:54;;;;;;;18.77;13.65;;;;;;;;;;6211363;23;20452;-76
2023/05/09 11:15:21;;;;;;;19.87;14.20;;;;;;;;;;6245113;23;20480;-75
2023/05/09 11:17:51;;;;;;;20.92;14.57;;;;;;;;;;6246699;23;20366;-75
2023/05/09 11:20:17;;;;;;;20.50;14.38;;;18.50;99.90;;;;;;6218340;23;20376;-76
2023/05/09 11:22:43;;;;;;;18.95;13.35;;;18.50;99.90;;;;;;6241803;23;20767;-76
2023/05/09 11:25:14;;;;;;;18.15;13.40;;;18.30;99.90;;;;;;6217295;23;20420;-75
2023/05/09 11:27:44;;;;;;;17.33;13.45;;;18.30;99.90;;;;;;6241435;23;20366;-76
2023/05/09 11:30:13;;;;;;;21.27;14.43;;;;;;;;;;6214970;23;20923;-76
2023/05/09 11:32:42;;;;;;;21.50;14.43;;;;;;;;;;6241748;23;20372;-76
2023/05/09 11:35:13;;;;;;;19.15;13.88;;;18.50;99.90;;;;;;6217249;23;20370;-76
2023/05/09 11:37:45;;;;;;;18.25;14.20;;;;;;;;;;6243176;23;20423;-76
2023/05/09 11:40:12;;;;;;;18.80;14.18;;;18.50;99.90;;;;;;6244268;23;21082;-76
2023/05/09 11:42:42;;;;;;;17.42;14.10;;;;;;;;;;6244902;23;20370;-77
2023/05/09 11:45:10;;;;;;;18.13;13.60;;;18.40;99.90;;;;;;6242726;23;20390;-74
2023/05/09 11:47:36;;;;;;;20.13;13.98;;;18.30;99.90;;;;;;6245149;22;20366;-77
2023/05/09 11:50:05;;;;;;;16.42;13.55;;;18.50;99.90;;;;;;6244461;23;20362;-77
2023/05/09 11:52:34;;;;;;;17.90;13.88;;;18.30;99.90;;;;;;6219958;23;20398;-76
2023/05/09 11:55:00;;;;;;;18.33;14.38;;;;;;;;;;6219288;23;20374;-75
2023/05/09 11:57:28;;;;;;;19.70;14.63;;;18.70;99.90;;;;;;6219562;23;20373;-75
2023/05/09 11:59:54;;;;;;;20.05;14.70;;;;;;;;;;6220129;23;20764;-76
2023/05/09 12:02:21;;;;;;;18.33;14.50;;;18.80;99.90;;;;;;6243479;23;20396;-75
2023/05/09 12:04:47;;;;;;;18.13;13.68;;;18.90;99.90;;;;;;6243319;23;20394;-77
2023/05/09 12:07:15;;;;;;;17.15;13.77;;;;;;;;;;6245391;23;20854;-77
2023/05/09 12:09:42;;;;;;;19.02;13.18;;;19.10;99.90;;;;;;6195288;23;20362;-77
2023/05/09 12:12:13;;;;;;;15.55;12.98;;;;;;;;;;6244871;23;20978;-75
2023/05/09 12:14:42;;;;;;;15.93;13.15;;;19.00;99.90;;;;;;6218968;23;20373;-75
2023/05/09 12:17:08;;;;;;;16.42;12.88;;;;;;;;;;6242478;23;20424;-74
2023/05/09 12:19:35;;;;;;;18.10;12.52;;;;;;;;;;6244602;23;20362;-76
2023/05/09 12:22:02;;;;;;;15.43;12.38;;;;;;;;;;6243918;23;20362;-76
2023/05/09 12:24:29;;;;;;;16.15;12.85;;;18.90;99.90;;;;;;6244799;23;20362;-76
2023/05/09 12:26:57;;;;;;;18.17;13.60;;;18.90;99.90;;;;;;6244236;23;20448;-76
2023/05/09 12:29:23;;;;;;;17.38;14.15;;;;;;;;;;6218775;23;20717;-76
2023/05/09 12:31:51;;;;;;;18.05;14.55;;;;;;;;;;6217514;23;20441;-77
2023/05/09 12:34:17;;;;;;;17.63;14.65;;;;;;;;;;6215213;23;20755;-76
2023/05/09 12:36:50;;;;;;;17.67;15.02;;;18.80;99.90;;;;;;6241255;23;20374;-76
2023/05/09 12:39:23;;;;;;;18.85;15.50;;;18.90;99.90;;;;;;6214379;23;20362;-75
2023/05/09 12:41:49;;;;;;;19.65;15.77;;;;;;;;;;6217942;23;20372;-76
2023/05/09 12:44:22;;;;;;;22.13;17.33;;;;;;;;;;6216056;23;20398;-75
2023/05/09 12:46:57;;;;;;;21.25;17.48;;;;;;;;;;6215756;23;20469;-74
2023/05/09 12:49:24;;;;;;;21.55;17.70;;;;;;;;;;6216478;23;20465;-76
2023/05/09 12:51:52;;;;;;;22.60;19.13;;;18.70;99.90;;;;;;6217321;23;20448;-74
2023/05/09 12:54:26;;;;;;;26.15;20.38;;;18.60;99.90;;;;;;6242361;23;20369;-75
2023/05/09 12:56:57;;;;;;;28.53;21.47;;;18.60;99.90;;;;;;6242896;23;20692;-75
2023/05/09 12:59:27;;;;;;;30.75;22.92;;;18.80;99.90;;;;;;6215332;23;20377;-75
2023/05/09 13:01:56;;;;;;;30.38;23.25;;;18.20;99.90;;;;;;6217337;23;20376;-76
2023/05/09 13:04:22;;;;;;;31.38;23.70;;;;;;;;;;6215978;23;20398;-76
2023/05/09 13:06:58;;;;;;;33.00;24.50;;;;;;;;;;6240251;23;20478;-77
2023/05/09 13:09:26;;;;;;;32.55;24.70;;;18.20;99.90;;;;;;6217547;23;20445;-75
2023/05/09 13:11:52;;;;;;;32.22;24.38;;;;;;;;;;6242558;23;20366;-76
2023/05/09 13:14:20;;;;;;;31.55;23.73;;;18.20;99.90;;;;;;6242179;23;20688;-76
2023/05/09 13:16:46;;;;;;;31.45;23.98;;;;;;;;;;6242758;23;20366;-77
2023/05/09 13:19:12;;;;;;;37.50;26.80;;;18.40;99.90;;;;;;6242061;23;20432;-78
2023/05/09 13:21:38;;;;;;;32.88;26.10;;;;;;;;;;6243093;23;20369;-77
2023/05/09 13:24:05;;;;;;;35.22;25.90;;;18.40;99.90;;;;;;6243016;23;20403;-78
2023/05/09 13:26:32;;;;;;;31.30;24.20;;;;;;;;;;6241762;23;20390;-77
2023/05/09 13:28:58;;;;;;;31.17;24.30;;;18.00;99.90;;;;;;6218774;23;20393;-76
2023/05/09 13:31:24;;;;;;;30.58;24.25;;;;;;;;;;6217119;23;21267;-78
2023/05/09 13:33:51;;;;;;;30.95;24.90;;;;;;;;;;6217616;23;20453;-78
2023/05/09 13:36:17;;;;;;;32.75;25.27;;;;;;;;;;6217763;23;20695;-77
2023/05/09 13:38:44;;;;;;;28.60;23.98;;;;;;;;;;6242495;23;20743;-76
2023/05/09 13:41:10;;;;;;;26.77;23.48;;;;;;;;;;6217677;23;20377;-76
2023/05/09 13:43:36;;;;;;;28.70;22.50;;;;;;;;;;6243096;23;20390;-77